Terminal Aerodrome Forecast
Issued by NWS

Home | Current Version | Previous Version | Text Only | Print | Product List | Glossary On
Versions: 1 2 3 4 5 6 7 8 9 10 11 12 13 14 15 16 17 18 19 20 21 22 23 24 25
000
FTUS43 KBIS 212339
TAFJMS
TAF
KJMS 212339Z 2200/2224 17008KT P6SM BKN050
     FM220130 VRB05KT P6SM FEW070 SCT200
     FM220230 35007KT P6SM SKC
     FM221100 02011KT P6SM VCSH SCT025 BKN035
     FM221500 04013G21KT P6SM BKN025 OVC035
     FM222000 04012G17KT P6SM OVC010=

USA.gov is the U.S. government's official web portal to all federal, state and local government web resources and services.